Time;durP1;ratioP1;P1;durP2;ratioP2;P2;SDS_P1;SDS_P2;PMS_P1;PMS_P2;Temp;Humidity;BMP_temperature;BMP_pressure;BME280_temperature;BME280_humidity;BME280_pressure;Samples;Min_cycle;Max_cycle;Signal;HPM_P1;HPM_P2
2021/11/17 02:25:56;;;;;;;8.97;4.03;;;;;;;8.29;91.25;96558.69;5001589;28;20218;-69
2021/11/17 02:28:53;;;;;;;3.73;2.33;;;;;;;8.38;91.47;96555.94;5001682;28;20276;-73
2021/11/17 02:31:33;;;;;;;10.20;3.53;;;;;;;8.26;91.66;96565.09;4987240;28;20205;-72
2021/11/17 02:34:16;;;;;;;5.57;2.73;;;;;;;8.25;91.95;96568.69;5016753;28;20205;-70
2021/11/17 02:37:07;;;;;;;5.00;3.40;;;;;;;8.27;92.33;96566.72;5015747;28;20194;-71
2021/11/17 02:39:58;;;;;;;2.33;1.70;;;;;;;8.01;93.21;96560.59;5020557;28;20244;-73
2021/11/17 02:42:42;;;;;;;4.17;1.80;;;;;;;7.78;94.42;96563.88;5020869;28;20225;-72
2021/11/17 02:45:33;;;;;;;7.33;3.10;;;;;;;8.03;93.28;96563.06;5020654;28;20209;-72
2021/11/17 02:48:13;;;;;;;3.53;1.93;;;;;;;8.05;93.97;96559.31;5020299;28;20586;-69
2021/11/17 02:51:00;;;;;;;4.07;2.27;;;;;;;8.18;92.98;96564.19;5020543;28;20225;-69
2021/11/17 02:53:44;;;;;;;10.07;3.07;;;;;;;8.33;92.96;96554.78;5020270;28;20244;-72
2021/11/17 02:56:25;;;;;;;8.37;4.27;;;;;;;8.35;92.65;96563.31;5020060;28;20212;-73
2021/11/17 02:59:08;;;;;;;7.00;3.50;;;;;;;8.31;92.74;96554.09;5020066;28;21028;-72
2021/11/17 03:01:57;;;;;;;6.10;2.50;;;;;;;8.45;92.56;96562.22;5020297;28;20217;-69
2021/11/17 03:04:40;;;;;;;4.07;2.57;;;;;;;8.36;92.72;96564.97;5020565;28;20324;-69
2021/11/17 03:07:25;;;;;;;6.77;3.63;;;;;;;8.10;92.64;96564.94;5019707;28;20577;-71
2021/11/17 03:10:15;;;;;;;6.50;2.97;;;;;;;7.97;92.58;96563.72;5019766;28;20221;-70
2021/11/17 03:12:57;;;;;;;4.00;2.83;;;;;;;8.11;92.61;96566.59;5020393;28;20237;-72
2021/11/17 03:15:44;;;;;;;10.40;5.13;;;;;;;7.86;93.69;96573.63;5016762;28;20206;-70
2021/11/17 03:18:26;;;;;;;3.00;1.67;;;;;;;8.02;92.22;96571.94;5020158;28;20205;-70
2021/11/17 03:21:18;;;;;;;5.30;2.80;;;;;;;8.35;91.05;96565.94;5016570;28;20229;-72
2021/11/17 03:24:04;;;;;;;4.27;2.77;;;;;;;8.26;90.88;96566.88;5020352;28;20213;-71
2021/11/17 03:26:56;;;;;;;7.10;2.97;;;;;;;8.35;90.36;96568.56;5019013;28;20206;-71
2021/11/17 03:29:46;;;;;;;4.40;1.90;;;;;;;8.15;91.07;96575.03;5020030;28;20230;-71
2021/11/17 03:32:41;;;;;;;4.67;2.83;;;;;;;8.00;91.20;96573.88;5019987;28;20221;-69
2021/11/17 03:35:34;;;;;;;5.47;2.60;;;;;;;8.23;90.50;96575.06;5019844;28;20268;-70
2021/11/17 03:38:17;;;;;;;5.73;3.13;;;;;;;8.22;90.22;96573.41;5019815;28;20236;-72
2021/11/17 03:41:10;;;;;;;5.17;2.13;;;;;;;8.12;90.61;96577.91;5019341;28;20283;-70
2021/11/17 03:44:01;;;;;;;6.30;2.17;;;;;;;8.13;90.93;96579.56;5019831;28;20210;-71
2021/11/17 03:46:55;;;;;;;2.90;2.17;;;;;;;8.07;90.97;96585.41;5018989;28;20212;-73
2021/11/17 03:49:35;;;;;;;7.27;1.90;;;;;;;8.12;90.74;96583.16;5018975;28;20575;-70
2021/11/17 03:52:19;;;;;;;4.37;2.93;;;;;;;7.97;91.51;96582.06;5019411;28;20242;-70
2021/11/17 03:55:11;;;;;;;5.20;3.00;;;;;;;8.21;90.61;96588.34;5019350;28;20217;-70
2021/11/17 03:57:49;;;;;;;4.37;2.77;;;;;;;7.94;91.56;96584.97;5018508;28;20221;-70
2021/11/17 04:00:37;;;;;;;6.77;2.90;;;;;;;7.93;91.47;96591.22;5019286;28;20229;-72
2021/11/17 04:03:27;;;;;;;4.63;3.03;;;;;;;7.98;90.41;96596.81;5019490;28;20205;-71
2021/11/17 04:06:05;;;;;;;5.07;2.03;;;;;;;8.02;90.15;96588.50;5018333;28;20924;-71
2021/11/17 04:08:47;;;;;;;8.77;2.37;;;;;;;8.09;88.95;96589.53;5019196;28;20233;-70
2021/11/17 04:11:30;;;;;;;6.80;3.17;;;;;;;8.11;88.78;96587.59;5019263;28;20205;-72
2021/11/17 04:14:06;;;;;;;4.47;1.80;;;;;;;7.90;87.70;96588.88;5018823;28;20641;-71
2021/11/17 04:16:49;;;;;;;2.20;1.50;;;;;;;8.07;87.82;96588.03;5018969;28;20580;-71
2021/11/17 04:19:29;;;;;;;2.70;1.90;;;;;;;8.07;86.28;96585.41;5015474;28;20422;-72
2021/11/17 04:22:10;;;;;;;1.17;1.10;;;;;;;7.87;85.43;96589.22;5018802;28;20212;-71
2021/11/17 04:25:02;;;;;;;1.60;1.30;;;;;;;7.73;85.83;96587.13;5019797;28;20217;-69
2021/11/17 04:27:46;;;;;;;1.90;1.33;;;;;;;8.05;86.05;96579.50;5017972;28;20222;-71
2021/11/17 04:30:43;;;;;;;4.70;1.70;;;;;;;8.06;84.77;96589.84;5018406;28;20236;-72
2021/11/17 04:33:36;;;;;;;1.70;1.23;;;;;;;8.02;85.04;96585.88;5019121;28;20210;-69
2021/11/17 04:36:25;;;;;;;1.80;1.53;;;;;;;7.86;85.39;96590.19;5017844;28;20206;-71
2021/11/17 04:39:15;;;;;;;2.63;0.87;;;;;;;8.07;84.93;96590.66;5018128;28;20198;-70
2021/11/17 04:42:12;;;;;;;3.23;1.90;;;;;;;8.13;85.07;96584.81;5018536;28;20784;-69
2021/11/17 04:45:02;;;;;;;2.20;1.37;;;;;;;8.14;86.20;96586.50;5018151;28;20209;-71
2021/11/17 04:47:44;;;;;;;2.07;1.10;;;;;;;8.11;85.45;96577.09;5010632;28;20222;-69
2021/11/17 04:50:34;;;;;;;3.93;2.40;;;;;;;7.90;87.03;96588.88;5018530;28;20221;-70
2021/11/17 04:53:23;;;;;;;1.90;1.67;;;;;;;7.79;87.23;96583.91;5018176;28;20312;-71
2021/11/17 04:56:05;;;;;;;3.37;2.33;;;;;;;7.87;87.05;96584.78;5017764;28;20202;-70
2021/11/17 04:58:51;;;;;;;3.67;2.03;;;;;;;8.12;86.78;96576.13;5018408;28;20206;-70
2021/11/17 05:01:33;;;;;;;1.90;1.53;;;;;;;8.09;87.04;96583.47;5018016;28;20213;-69
2021/11/17 05:04:17;;;;;;;3.77;2.30;;;;;;;7.87;87.14;96589.22;5018024;28;20212;-73
2021/11/17 05:06:59;;;;;;;2.13;1.57;;;;;;;7.97;87.70;96580.25;5017602;28;20216;-72
2021/11/17 05:09:39;;;;;;;5.03;1.20;;;;;;;7.92;87.15;96585.13;5017839;28;20233;-70
2021/11/17 05:12:18;;;;;;;7.83;4.33;;;;;;;7.64;87.16;96588.03;5017593;28;20198;-70
2021/11/17 05:14:55;;;;;;;5.83;2.43;;;;;;;7.61;87.10;96588.34;5018144;28;20210;-69
2021/11/17 05:17:33;;;;;;;6.43;2.53;;;;;;;7.68;86.51;96591.19;5017305;28;20217;-73
2021/11/17 05:20:11;;;;;;;2.00;1.67;;;;;;;7.69;86.94;96590.19;5015237;28;20224;-70
2021/11/17 05:22:52;;;;;;;1.47;1.27;;;;;;;7.61;87.05;96598.00;5017948;28;20301;-69
2021/11/17 05:25:54;;;;;;;0.70;0.70;;;;;;;7.51;86.63;96603.31;5017929;28;20209;-72
2021/11/17 05:28:38;;;;;;;2.10;1.67;;;;;;;7.49;87.59;96599.19;4981900;28;20713;-72
2021/11/17 05:31:19;;;;;;;8.73;4.80;;;;;;;7.53;87.55;96600.53;5017579;28;20197;-74
2021/11/17 05:34:02;;;;;;;1.40;1.30;;;;;;;7.49;87.92;96602.63;5017648;28;20278;-72
2021/11/17 05:36:37;;;;;;;1.37;1.27;;;;;;;7.29;88.55;96603.75;5017519;28;20279;-72
2021/11/17 05:39:20;;;;;;;21.00;6.77;;;;;;;7.58;87.20;96598.28;5017521;28;20228;-72
2021/11/17 05:41:58;;;;;;;6.07;2.43;;;;;;;7.50;87.77;96604.28;5016925;28;20225;-72
2021/11/17 05:44:40;;;;;;;2.57;1.70;;;;;;;7.66;88.67;96603.59;5017624;28;20206;-72
2021/11/17 05:47:19;;;;;;;2.37;1.37;;;;;;;7.42;88.45;96609.47;5016631;28;20390;-70
2021/11/17 05:49:59;;;;;;;1.10;1.00;;;;;;;7.30;88.10;96609.81;5017111;28;20217;-70
2021/11/17 05:52:40;;;;;;;3.17;1.87;;;;;;;7.39;87.81;96620.22;5017320;28;20206;-69
2021/11/17 05:55:30;;;;;;;2.13;1.93;;;;;;;7.42;87.64;96614.69;5017485;28;20209;-72
2021/11/17 05:58:11;;;;;;;4.13;2.17;;;;;;;7.49;87.23;96612.31;5017264;28;20202;-72
2021/11/17 06:00:57;;;;;;;5.43;1.70;;;;;;;7.59;86.56;96607.81;5017118;28;20305;-74
2021/11/17 06:03:37;;;;;;;7.90;2.13;;;;;;;7.58;86.25;96608.78;5017100;28;21121;-74
2021/11/17 06:06:03;;;;;;;2.17;1.30;;;;;;;7.20;87.03;96610.84;5016460;28;20202;-74
2021/11/17 06:08:29;;;;;;;4.43;1.50;;;;;;;7.29;87.14;96606.38;5016983;28;20587;-74
2021/11/17 06:11:01;;;;;;;2.20;1.27;;;;;;;7.57;86.89;96615.00;5016323;28;20217;-74
2021/11/17 06:13:28;;;;;;;1.60;1.00;;;;;;;7.30;86.90;96613.25;5016781;28;21136;-74
2021/11/17 06:15:56;;;;;;;1.10;1.00;;;;;;;7.59;85.98;96611.25;5016389;28;20232;-74
2021/11/17 06:18:26;;;;;;;3.67;2.27;;;;;;;7.53;85.67;96618.91;5017297;28;20237;-74
2021/11/17 06:20:54;;;;;;;1.70;1.23;;;;;;;7.55;85.80;96617.78;5013948;28;20224;-72
2021/11/17 06:23:25;;;;;;;4.40;1.77;;;;;;;7.90;85.04;96626.47;5017110;28;20202;-72
2021/11/17 06:25:53;;;;;;;2.83;1.47;;;;;;;7.60;86.09;96627.81;5016418;28;20201;-73
2021/11/17 06:28:23;;;;;;;2.13;0.83;;;;;;;7.68;85.97;96633.16;5016583;28;20229;-72
2021/11/17 06:30:52;;;;;;;3.87;2.07;;;;;;;7.54;86.20;96629.22;5016904;28;20226;-72
2021/11/17 06:33:19;;;;;;;6.90;2.40;;;;;;;7.56;86.09;96629.91;5016260;28;20455;-72
2021/11/17 06:35:45;;;;;;;2.57;2.03;;;;;;;7.75;85.47;96628.94;5016160;28;20206;-73
2021/11/17 06:38:12;;;;;;;1.83;1.50;;;;;;;7.56;85.63;96637.78;5015947;28;20693;-73
2021/11/17 06:40:42;;;;;;;2.03;1.23;;;;;;;7.69;86.16;96643.47;5016134;28;20222;-72
2021/11/17 06:43:09;;;;;;;8.83;1.43;;;;;;;7.59;85.74;96647.97;5016965;28;20221;-72
2021/11/17 06:45:39;;;;;;;2.30;1.43;;;;;;;7.67;85.50;96650.66;5015628;28;20867;-72
2021/11/17 06:48:07;;;;;;;4.27;1.13;;;;;;;7.58;85.30;96656.81;5016135;28;20226;-72
2021/11/17 06:50:36;;;;;;;3.13;1.87;;;;;;;7.57;85.00;96655.16;5016667;28;20226;-72
2021/11/17 06:53:03;;;;;;;1.73;1.43;;;;;;;7.44;85.59;96667.78;5016111;28;20204;-72
2021/11/17 06:55:29;;;;;;;3.93;2.00;;;;;;;7.20;85.86;96665.88;5015854;28;21029;-72
2021/11/17 06:57:56;;;;;;;3.17;1.97;;;;;;;7.28;84.82;96675.50;5016820;28;20221;-72
2021/11/17 07:00:25;;;;;;;2.73;1.70;;;;;;;7.48;85.64;96674.38;5016183;28;20222;-72
2021/11/17 07:02:53;;;;;;;2.10;1.53;;;;;;;7.60;85.25;96682.88;5016271;28;20229;-72
2021/11/17 07:05:21;;;;;;;0.97;0.90;;;;;;;7.56;84.61;96681.53;5016238;28;20202;-72
2021/11/17 07:07:47;;;;;;;2.13;1.90;;;;;;;7.54;84.60;96686.09;5016124;28;20202;-72
2021/11/17 07:10:19;;;;;;;1.10;1.00;;;;;;;7.76;84.03;96686.50;5016735;28;20230;-73
2021/11/17 07:12:45;;;;;;;3.67;1.93;;;;;;;7.57;84.39;96691.03;5016329;28;20626;-72
2021/11/17 07:15:14;;;;;;;1.60;1.33;;;;;;;7.73;84.11;96702.53;5015962;28;20198;-72
2021/11/17 07:17:41;;;;;;;2.37;1.77;;;;;;;7.50;84.48;96709.16;5016239;28;20208;-72
2021/11/17 07:20:11;;;;;;;4.97;1.37;;;;;;;7.86;83.97;96702.19;5014123;28;20214;-72
2021/11/17 07:22:39;;;;;;;0.73;0.73;;;;;;;7.78;83.20;96705.53;5015688;28;20206;-72
2021/11/17 07:25:08;;;;;;;2.03;1.00;;;;;;;7.82;82.46;96709.50;5020298;28;20206;-72
2021/11/17 07:27:36;;;;;;;4.30;3.07;;;;;;;7.45;83.14;96710.59;5019762;28;20228;-72
2021/11/17 07:30:05;;;;;;;3.33;2.07;;;;;;;7.70;83.55;96707.25;5019516;28;20336;-73
2021/11/17 07:32:32;;;;;;;2.90;1.33;;;;;;;7.46;83.01;96720.13;5019885;28;20209;-73
2021/11/17 07:34:59;;;;;;;6.33;1.70;;;;;;;7.59;83.12;96717.97;5019515;28;20309;-73
2021/11/17 07:37:27;;;;;;;1.40;0.97;;;;;;;7.70;83.63;96723.81;5018946;28;20610;-73
2021/11/17 07:39:54;;;;;;;2.20;1.40;;;;;;;7.65;83.63;96715.56;5019310;28;20304;-72
2021/11/17 07:42:20;;;;;;;0.73;0.73;;;;;;;7.52;84.14;96717.72;5019238;28;20214;-72
2021/11/17 07:44:48;;;;;;;4.33;2.33;;;;;;;7.97;83.23;96713.28;5019199;28;20666;-72
2021/11/17 07:47:15;;;;;;;0.93;0.93;;;;;;;7.49;85.11;96718.00;5019069;28;20288;-72
2021/11/17 07:49:41;;;;;;;2.20;1.00;;;;;;;7.57;84.90;96717.28;5019226;28;20725;-72
2021/11/17 07:52:08;;;;;;;7.47;3.47;;;;;;;7.47;84.99;96712.09;5019160;28;20687;-72
2021/11/17 07:54:36;;;;;;;3.00;1.63;;;;;;;7.84;84.78;96719.84;5019093;28;20236;-72
2021/11/17 07:57:03;;;;;;;5.07;2.67;;;;;;;7.68;85.63;96724.94;5018274;28;20213;-73
2021/11/17 07:59:32;;;;;;;3.03;1.57;;;;;;;7.68;85.72;96724.94;5019663;28;20222;-73
2021/11/17 08:02:02;;;;;;;5.53;3.83;;;;;;;8.16;84.40;96731.50;5019764;28;20206;-73
2021/11/17 08:04:34;;;;;;;5.00;3.00;;;;;;;7.72;85.93;96732.34;5018914;28;20214;-73
2021/11/17 08:07:02;;;;;;;4.87;2.57;;;;;;;7.82;85.90;96729.69;5018324;28;20666;-73
2021/11/17 08:09:28;;;;;;;6.50;2.63;;;;;;;7.91;86.15;96733.03;5018645;28;20245;-73
2021/11/17 08:11:56;;;;;;;4.83;2.17;;;;;;;8.32;85.29;96721.16;5019330;28;20213;-73
2021/11/17 08:14:23;;;;;;;2.03;1.30;;;;;;;8.01;84.85;96725.94;5018620;28;20209;-73
2021/11/17 08:16:49;;;;;;;5.67;2.10;;;;;;;7.86;86.01;96726.59;5018572;28;20206;-73
2021/11/17 08:19:16;;;;;;;1.30;1.20;;;;;;;7.78;85.83;96725.69;5016391;28;20233;-72
2021/11/17 08:21:42;;;;;;;1.87;1.63;;;;;;;7.88;85.72;96732.53;5018344;28;21202;-73
2021/11/17 08:24:09;;;;;;;1.93;1.43;;;;;;;8.09;84.55;96730.44;5019213;28;20221;-73
2021/11/17 08:26:36;;;;;;;1.63;1.00;;;;;;;8.27;84.49;96737.34;5017361;28;20202;-73
2021/11/17 08:29:04;;;;;;;2.80;1.27;;;;;;;8.47;83.71;96740.66;5017991;28;20226;-73
2021/11/17 08:31:31;;;;;;;1.17;1.03;;;;;;;8.14;83.58;96749.22;5019159;28;20205;-72
2021/11/17 08:33:57;;;;;;;1.10;0.90;;;;;;;8.15;83.16;96748.25;5018887;28;20295;-72
2021/11/17 08:36:24;;;;;;;2.17;1.17;;;;;;;8.07;83.34;96748.97;5015481;28;20206;-72
2021/11/17 08:38:54;;;;;;;3.10;1.20;;;;;;;8.36;83.07;96751.41;5017765;28;20202;-72
2021/11/17 08:41:23;;;;;;;2.97;0.93;;;;;;;8.05;83.20;96760.59;5018584;28;20457;-72
2021/11/17 08:43:50;;;;;;;3.13;1.43;;;;;;;7.94;84.29;96766.03;5017726;28;20745;-72
2021/11/17 08:46:19;;;;;;;3.90;1.20;;;;;;;8.48;83.18;96764.97;5017102;28;20214;-72
2021/11/17 08:48:46;;;;;;;0.77;0.77;;;;;;;8.16;82.98;96768.25;5017547;28;20222;-72
2021/11/17 08:51:15;;;;;;;1.73;1.13;;;;;;;8.48;82.78;96768.56;5017662;28;20210;-72
2021/11/17 08:53:45;;;;;;;1.37;0.97;;;;;;;8.15;82.83;96771.88;5017560;28;20213;-73
2021/11/17 08:56:12;;;;;;;0.33;0.33;;;;;;;8.06;82.73;96762.25;5017462;28;20206;-72
2021/11/17 08:58:40;;;;;;;0.70;0.70;;;;;;;8.25;81.71;96767.34;5017762;28;20210;-72
2021/11/17 09:01:07;;;;;;;1.97;0.77;;;;;;;8.21;81.59;96766.84;5017765;28;20629;-72
2021/11/17 09:03:36;;;;;;;0.97;0.77;;;;;;;8.25;81.72;96768.19;5017308;28;20221;-72
2021/11/17 09:06:05;;;;;;;0.77;0.77;;;;;;;8.22;82.03;96772.91;5016872;28;20209;-72
2021/11/17 09:08:33;;;;;;;1.00;0.80;;;;;;;8.21;81.50;96766.00;5017066;28;20206;-72
2021/11/17 09:11:03;;;;;;;3.47;1.80;;;;;;;8.28;82.38;96769.69;5017524;28;20683;-72
2021/11/17 09:13:30;;;;;;;1.17;1.07;;;;;;;8.19;82.17;96778.47;5017137;28;20948;-72
2021/11/17 09:15:59;;;;;;;2.03;1.50;;;;;;;8.65;81.69;96771.97;5016096;28;20206;-72
2021/11/17 09:18:28;;;;;;;0.90;0.83;;;;;;;8.86;80.89;96769.88;5017640;28;20205;-72
2021/11/17 09:20:57;;;;;;;1.53;1.27;;;;;;;8.58;81.25;96783.28;5014260;28;20232;-72
2021/11/17 09:23:26;;;;;;;1.80;1.20;;;;;;;8.26;81.81;96785.63;5016859;28;20728;-72
2021/11/17 09:25:54;;;;;;;1.90;1.13;;;;;;;8.32;81.65;96781.56;5016490;28;20285;-72
2021/11/17 09:28:21;;;;;;;1.33;1.23;;;;;;;8.58;81.27;96784.09;5017204;28;20678;-72
2021/11/17 09:30:49;;;;;;;0.97;0.87;;;;;;;8.10;80.43;96784.59;5016655;28;20600;-72
2021/11/17 09:33:16;;;;;;;1.43;1.33;;;;;;;8.12;80.39;96793.13;5017142;28;20376;-72
2021/11/17 09:35:44;;;;;;;2.40;1.10;;;;;;;7.98;80.92;96802.34;5016060;28;20707;-72
2021/11/17 09:38:13;;;;;;;1.13;0.93;;;;;;;8.44;79.60;96789.06;5016746;28;20206;-72
2021/11/17 09:40:45;;;;;;;0.93;0.90;;;;;;;8.47;79.97;96794.00;5016743;28;20225;-72
2021/11/17 09:43:15;;;;;;;1.00;0.77;;;;;;;8.57;79.54;96794.75;5017243;28;20334;-72
2021/11/17 09:45:43;;;;;;;0.50;0.50;;;;;;;8.12;78.48;96798.38;5016471;28;20202;-72
2021/11/17 09:48:13;;;;;;;0.97;0.90;;;;;;;8.17;79.77;96802.25;5016937;28;20214;-72
2021/11/17 09:50:44;;;;;;;1.20;0.93;;;;;;;8.37;79.00;96802.94;5017988;28;20604;-72
2021/11/17 09:53:15;;;;;;;1.20;0.97;;;;;;;8.38;78.54;96809.84;5017588;28;20205;-72
2021/11/17 09:55:45;;;;;;;0.87;0.60;;;;;;;8.33;78.27;96806.84;5015729;28;20252;-72
2021/11/17 09:58:16;;;;;;;0.67;0.57;;;;;;;8.29;79.16;96800.25;5014657;28;20205;-72
2021/11/17 10:00:46;;;;;;;0.40;0.40;;;;;;;8.42;78.52;96798.06;5016809;28;20232;-72
2021/11/17 10:03:16;;;;;;;1.00;0.90;;;;;;;8.42;78.29;96805.94;5016743;28;20575;-72
2021/11/17 10:06:23;;;;;;;0.97;0.90;;;;;;;8.49;78.19;96811.25;5016153;28;20201;-72
2021/11/17 10:09:24;;;;;;;1.10;1.00;;;;;;;8.29;78.73;96816.81;5016730;28;20283;-72
2021/11/17 10:14:43;;;;;;;2.53;1.63;;;;;;;8.42;78.01;96816.44;4995336;28;20240;-72
2021/11/17 10:17:34;;;;;;;2.10;0.80;;;;;;;8.72;76.85;96809.00;5016212;28;20252;-72
2021/11/17 10:20:11;;;;;;;1.40;1.13;;;;;;;8.61;77.05;96817.13;5016676;28;20224;-72
2021/11/17 10:22:39;;;;;;;1.27;1.00;;;;;;;8.57;77.25;96816.59;5016561;28;20205;-72
2021/11/17 10:25:10;;;;;;;1.10;0.97;;;;;;;8.82;76.37;96807.94;5016785;28;20206;-72
2021/11/17 10:27:46;;;;;;;0.80;0.80;;;;;;;8.61;75.52;96806.59;5015993;28;20214;-72
2021/11/17 10:30:18;;;;;;;0.50;0.50;;;;;;;9.02;74.94;96800.69;5016913;28;20599;-72
2021/11/17 10:32:47;;;;;;;2.60;1.03;;;;;;;8.58;76.99;96807.72;5016683;28;20233;-72
2021/11/17 10:35:20;;;;;;;4.80;1.77;;;;;;;8.96;76.91;96796.88;5016190;28;20213;-72
2021/11/17 10:38:01;;;;;;;2.77;1.17;;;;;;;9.10;75.66;96807.66;5015993;28;20387;-72
2021/11/17 10:40:33;;;;;;;2.90;1.80;;;;;;;8.82;77.15;96799.22;5016761;28;20232;-72
2021/11/17 10:43:02;;;;;;;6.07;1.80;;;;;;;8.79;77.30;96800.34;5016333;28;20217;-72
2021/11/17 10:45:33;;;;;;;1.90;0.93;;;;;;;8.75;78.05;96804.25;5016126;28;20217;-72
2021/11/17 10:48:00;;;;;;;1.40;1.27;;;;;;;8.55;78.34;96808.03;5016756;28;20205;-72
2021/11/17 10:50:31;;;;;;;1.90;1.63;;;;;;;8.38;78.84;96807.22;5015977;28;20244;-72
2021/11/17 10:53:02;;;;;;;1.90;1.50;;;;;;;8.95;78.17;96784.72;5016935;28;20587;-72
2021/11/17 10:55:32;;;;;;;3.33;1.30;;;;;;;9.01;76.96;96785.88;5015923;28;20209;-72
2021/11/17 10:58:01;;;;;;;1.70;1.03;;;;;;;8.83;77.17;96790.34;5014018;28;20568;-72
2021/11/17 11:00:32;;;;;;;2.77;1.33;;;;;;;9.14;76.69;96790.59;5021106;28;20225;-72
2021/11/17 11:03:00;;;;;;;1.37;1.10;;;;;;;9.20;76.72;96789.97;5021379;28;20205;-72
2021/11/17 11:05:29;;;;;;;0.93;0.93;;;;;;;8.72;76.46;96788.81;5019659;28;20762;-72
2021/11/17 11:08:01;;;;;;;2.03;1.23;;;;;;;9.24;76.32;96795.72;5019804;28;20224;-72
2021/11/17 11:10:34;;;;;;;3.23;1.30;;;;;;;8.71;77.16;96787.16;5020666;28;20583;-73
2021/11/17 11:13:03;;;;;;;1.10;1.00;;;;;;;8.79;76.18;96789.03;5020013;28;20206;-72
2021/11/17 11:15:35;;;;;;;1.00;0.97;;;;;;;8.74;77.55;96791.28;5019491;28;20649;-72
2021/11/17 11:18:35;;;;;;;2.93;1.13;;;;;;;8.76;76.90;96790.16;5020101;28;20205;-72
2021/11/17 11:21:02;;;;;;;0.57;0.57;;;;;;;8.50;77.92;96799.78;5015525;28;20202;-72
2021/11/17 11:23:30;;;;;;;1.03;1.00;;;;;;;8.41;78.15;96783.28;5019983;28;20210;-72
2021/11/17 11:26:09;;;;;;;2.03;1.33;;;;;;;8.61;76.84;96785.59;5019408;28;20213;-72
2021/11/17 11:28:39;;;;;;;0.53;0.53;;;;;;;8.38;78.73;96788.84;5019910;28;20197;-72
2021/11/17 11:31:33;;;;;;;0.80;0.80;;;;;;;8.72;78.12;96782.75;5020072;28;20214;-72
2021/11/17 11:34:47;;;;;;;1.17;0.83;;;;;;;8.55;78.56;96797.53;5016986;28;20198;-72
2021/11/17 11:38:01;;;;;;;1.90;1.43;;;;;;;8.95;77.00;96782.09;5018828;28;20221;-72
2021/11/17 11:40:46;;;;;;;5.47;1.80;;;;;;;8.77;78.35;96786.53;5019923;28;20224;-72
2021/11/17 11:43:20;;;;;;;3.73;2.50;;;;;;;8.79;78.57;96783.75;5019325;28;20209;-72
2021/11/17 11:45:48;;;;;;;1.97;1.03;;;;;;;8.34;79.26;96793.56;5018608;28;20317;-72
2021/11/17 11:48:48;;;;;;;3.10;1.53;;;;;;;8.54;79.67;96795.88;5018945;28;20206;-72
2021/11/17 11:51:50;;;;;;;2.27;0.87;;;;;;;8.50;79.30;96786.66;5019223;28;20225;-72
2021/11/17 11:54:23;;;;;;;2.33;2.10;;;;;;;8.41;79.24;96778.03;5012106;28;20209;-72
2021/11/17 11:56:53;;;;;;;5.47;2.73;;;;;;;8.28;80.35;96785.47;5016167;28;20205;-72
2021/11/17 11:59:23;;;;;;;1.17;1.07;;;;;;;8.38;80.54;96788.84;5018992;28;20217;-72
2021/11/17 12:01:50;;;;;;;3.83;1.73;;;;;;;8.36;79.69;96773.22;5018943;28;20918;-72
2021/11/17 12:04:22;;;;;;;3.37;1.53;;;;;;;8.54;79.36;96777.50;5019195;28;20210;-72
2021/11/17 12:06:55;;;;;;;2.23;1.37;;;;;;;8.78;78.92;96768.97;5017126;28;20205;-72
2021/11/17 12:09:28;;;;;;;1.77;0.77;;;;;;;8.91;78.30;96759.72;5017869;28;20222;-72
2021/11/17 12:11:57;;;;;;;3.63;1.70;;;;;;;8.59;78.89;96777.03;5018574;28;20229;-72
2021/11/17 12:14:34;;;;;;;6.57;2.60;;;;;;;8.55;79.02;96760.75;5019077;28;21297;-72
2021/11/17 12:17:02;;;;;;;3.47;2.37;;;;;;;8.59;78.94;96761.25;5017258;28;20209;-72
2021/11/17 12:19:32;;;;;;;2.77;1.17;;;;;;;8.83;77.79;96757.00;5015492;28;20486;-72
2021/11/17 12:22:01;;;;;;;6.37;2.40;;;;;;;8.64;78.44;96764.25;5019335;28;20202;-72
2021/11/17 12:24:32;;;;;;;1.53;1.27;;;;;;;8.77;77.45;96770.78;5018893;28;20221;-72
2021/11/17 12:27:03;;;;;;;0.87;0.83;;;;;;;8.62;78.11;96759.16;5018560;28;20209;-72
2021/11/17 12:29:33;;;;;;;2.30;1.30;;;;;;;8.69;77.85;96770.72;5019101;28;20228;-72
2021/11/17 12:32:13;;;;;;;1.03;1.00;;;;;;;8.60;76.94;96776.06;5018682;28;20202;-72
2021/11/17 12:34:48;;;;;;;0.60;0.53;;;;;;;8.58;76.89;96784.09;5018991;28;20205;-72
2021/11/17 12:37:25;;;;;;;2.57;1.07;;;;;;;8.67;77.95;96782.38;5018250;28;20216;-72
2021/11/17 12:39:57;;;;;;;1.83;0.77;;;;;;;8.44;78.09;96782.97;5018381;28;20218;-72
2021/11/17 12:42:27;;;;;;;1.43;1.00;;;;;;;8.48;78.08;96784.31;5018591;28;20221;-72
2021/11/17 12:44:54;;;;;;;1.13;1.13;;;;;;;8.36;78.02;96780.28;5019013;28;20205;-72
2021/11/17 12:47:24;;;;;;;0.93;0.63;;;;;;;8.19;78.52;96788.97;5017497;28;20232;-72
2021/11/17 12:49:54;;;;;;;1.87;1.00;;;;;;;8.36;78.03;96786.34;5018072;28;20237;-72
2021/11/17 12:52:24;;;;;;;0.70;0.60;;;;;;;8.28;77.82;96794.16;5019252;28;20218;-72
2021/11/17 12:54:55;;;;;;;1.90;1.30;;;;;;;8.28;78.45;96791.53;5018191;28;21168;-72
2021/11/17 12:57:26;;;;;;;0.63;0.63;;;;;;;8.28;78.42;96798.59;5017752;28;20205;-72
2021/11/17 12:59:54;;;;;;;0.80;0.60;;;;;;;8.23;77.87;96793.78;5018355;28;20221;-72
2021/11/17 13:02:36;;;;;;;0.83;0.73;;;;;;;8.56;77.48;96795.72;5018419;28;20209;-72
2021/11/17 13:05:26;;;;;;;0.47;0.47;;;;;;;8.47;77.37;96798.44;5018024;28;20202;-72
2021/11/17 13:07:58;;;;;;;0.63;0.57;;;;;;;8.30;78.54;96801.88;5017854;28;20206;-71
2021/11/17 13:10:33;;;;;;;0.40;0.40;;;;;;;8.21;78.51;96805.38;5018164;28;20336;-71
2021/11/17 13:13:16;;;;;;;0.70;0.70;;;;;;;8.32;78.64;96799.94;5017960;28;21063;-72
2021/11/17 13:15:54;;;;;;;1.10;1.10;;;;;;;8.64;77.78;96795.78;5017211;28;20569;-71
2021/11/17 13:18:28;;;;;;;0.87;0.87;;;;;;;8.61;77.92;96798.72;5018329;28;20275;-72
2021/11/17 13:21:12;;;;;;;2.13;1.00;;;;;;;8.83;77.83;96785.91;5013493;28;20233;-71
2021/11/17 13:23:43;;;;;;;1.70;1.27;;;;;;;8.51;78.28;96793.56;5017768;28;20211;-71
2021/11/17 13:26:27;;;;;;;1.10;0.90;;;;;;;8.56;77.71;96799.16;5017931;28;20213;-71
2021/11/17 13:28:54;;;;;;;1.30;1.20;;;;;;;8.48;78.44;96800.06;5017256;28;20201;-71
2021/11/17 13:31:27;;;;;;;3.37;0.90;;;;;;;8.62;77.56;96809.06;5017451;28;20229;-72
2021/11/17 13:33:54;;;;;;;1.73;1.53;;;;;;;8.51;78.14;96814.56;5017933;28;20202;-71
2021/11/17 13:36:39;;;;;;;2.83;1.47;;;;;;;8.96;76.37;96812.66;5016729;28;20209;-72
2021/11/17 13:39:06;;;;;;;1.60;0.97;;;;;;;8.48;77.21;96820.09;5017313;28;20228;-72
2021/11/17 13:41:35;;;;;;;3.53;1.73;;;;;;;8.82;77.18;96805.31;5017265;28;20232;-72
2021/11/17 13:44:02;;;;;;;1.97;1.00;;;;;;;8.54;77.20;96816.91;5017534;28;20453;-72
2021/11/17 13:46:28;;;;;;;2.47;1.00;;;;;;;8.43;76.91;96818.09;5016708;28;20206;-72
2021/11/17 13:48:55;;;;;;;1.07;0.90;;;;;;;8.50;77.60;96820.81;5017329;28;20198;-72
2021/11/17 13:51:24;;;;;;;2.90;0.73;;;;;;;8.63;78.42;96830.91;5016743;28;20720;-71
2021/11/17 13:53:51;;;;;;;3.03;1.10;;;;;;;8.72;76.70;96820.34;5017033;28;20267;-71
2021/11/17 13:56:22;;;;;;;1.17;0.80;;;;;;;8.88;76.47;96817.81;5016854;28;20210;-72
2021/11/17 13:58:50;;;;;;;1.63;1.20;;;;;;;8.92;76.04;96824.41;5016922;28;20206;-72
2021/11/17 14:01:17;;;;;;;0.70;0.60;;;;;;;8.49;76.38;96821.78;5016761;28;20210;-72
2021/11/17 14:03:44;;;;;;;3.80;1.07;;;;;;;8.45;77.99;96821.38;5016873;28;20206;-71
2021/11/17 14:06:15;;;;;;;1.33;1.23;;;;;;;8.67;77.73;96822.59;5016606;28;20205;-72
2021/11/17 14:08:42;;;;;;;0.60;0.60;;;;;;;8.35;77.76;96820.63;5016648;28;20217;-72
2021/11/17 14:11:09;;;;;;;2.10;1.40;;;;;;;8.70;76.80;96824.91;5016937;28;21064;-71
2021/11/17 14:13:36;;;;;;;3.03;1.63;;;;;;;8.83;76.76;96816.63;5017118;28;20206;-71
2021/11/17 14:16:05;;;;;;;0.67;0.67;;;;;;;8.62;78.07;96816.97;5016191;28;20197;-71
2021/11/17 14:18:32;;;;;;;1.97;1.03;;;;;;;8.45;77.47;96829.28;5016995;28;20217;-71
2021/11/17 14:21:00;;;;;;;2.63;1.37;;;;;;;8.49;78.18;96831.47;5013627;28;20564;-71
2021/11/17 14:23:27;;;;;;;0.70;0.67;;;;;;;8.52;78.36;96839.84;5016625;28;20947;-71
2021/11/17 14:25:54;;;;;;;0.87;0.67;;;;;;;8.37;79.41;96837.06;5015981;28;20217;-71
2021/11/17 14:28:23;;;;;;;2.10;1.00;;;;;;;8.78;78.68;96832.88;5016002;28;20209;-71
2021/11/17 14:30:53;;;;;;;2.93;1.67;;;;;;;8.76;78.84;96831.38;5014924;28;20225;-71
2021/11/17 14:33:25;;;;;;;1.37;1.20;;;;;;;8.87;78.83;96833.75;5016669;28;20202;-71
2021/11/17 14:35:53;;;;;;;10.30;1.67;;;;;;;8.83;78.72;96830.59;5016736;28;20762;-71
2021/11/17 14:38:20;;;;;;;3.80;1.70;;;;;;;8.84;78.17;96834.88;5017071;28;20210;-71
2021/11/17 14:40:49;;;;;;;3.30;1.90;;;;;;;8.61;79.00;96830.25;5015942;28;20226;-71
2021/11/17 14:43:17;;;;;;;2.77;1.23;;;;;;;8.70;79.20;96834.59;5016197;28;20655;-71
2021/11/17 14:45:44;;;;;;;2.60;1.30;;;;;;;8.46;80.09;96844.06;5016374;28;20237;-71